sensor_id;sensor_type;location;lat;lon;timestamp;pressure;altitude;pressure_sealevel;temperature;humidity
5691;BME280;2870;42.680;23.364;2023-05-19T00:00:34;95340.47;;;12.42;100.00
5691;BME280;2870;42.680;23.364;2023-05-19T00:03:02;95344.56;;;12.41;100.00
5691;BME280;2870;42.680;23.364;2023-05-19T00:05:29;95346.22;;;12.52;100.00
5691;BME280;2870;42.680;23.364;2023-05-19T00:07:58;95346.06;;;12.50;100.00
5691;BME280;2870;42.680;23.364;2023-05-19T00:10:25;95346.38;;;12.62;100.00
5691;BME280;2870;42.680;23.364;2023-05-19T00:12:57;95348.44;;;12.61;100.00
5691;BME280;2870;42.680;23.364;2023-05-19T00:15:24;95342.28;;;12.47;100.00
5691;BME280;2870;42.680;23.364;2023-05-19T00:17:51;95341.53;;;12.55;100.00
5691;BME280;2870;42.680;23.364;2023-05-19T00:20:20;95334.75;;;12.58;100.00
5691;BME280;2870;42.680;23.364;2023-05-19T00:22:46;95333.31;;;12.49;100.00
5691;BME280;2870;42.680;23.364;2023-05-19T00:25:13;95323.59;;;12.35;100.00
5691;BME280;2870;42.680;23.364;2023-05-19T00:27:40;95329.53;;;12.54;100.00
5691;BME280;2870;42.680;23.364;2023-05-19T00:30:09;95329.34;;;12.52;100.00
5691;BME280;2870;42.680;23.364;2023-05-19T00:32:36;95325.81;;;12.44;100.00
5691;BME280;2870;42.680;23.364;2023-05-19T00:35:03;95333.28;;;12.57;100.00
5691;BME280;2870;42.680;23.364;2023-05-19T00:37:29;95333.69;;;12.45;100.00
5691;BME280;2870;42.680;23.364;2023-05-19T00:39:56;95330.31;;;12.39;100.00
5691;BME280;2870;42.680;23.364;2023-05-19T00:42:24;95331.41;;;12.52;100.00
5691;BME280;2870;42.680;23.364;2023-05-19T00:44:51;95320.13;;;12.59;100.00
5691;BME280;2870;42.680;23.364;2023-05-19T00:47:20;95316.31;;;12.72;100.00
5691;BME280;2870;42.680;23.364;2023-05-19T00:49:47;95324.66;;;12.55;100.00
5691;BME280;2870;42.680;23.364;2023-05-19T00:52:14;95319.34;;;12.66;100.00
5691;BME280;2870;42.680;23.364;2023-05-19T00:54:41;95325.41;;;12.55;100.00
5691;BME280;2870;42.680;23.364;2023-05-19T00:57:09;95319.34;;;12.66;100.00
5691;BME280;2870;42.680;23.364;2023-05-19T00:59:35;95326.53;;;12.52;100.00
5691;BME280;2870;42.680;23.364;2023-05-19T01:02:02;95315.81;;;12.58;100.00
5691;BME280;2870;42.680;23.364;2023-05-19T01:04:32;95318.50;;;12.41;100.00
5691;BME280;2870;42.680;23.364;2023-05-19T01:07:00;95317.97;;;12.35;100.00
5691;BME280;2870;42.680;23.364;2023-05-19T01:09:27;95316.63;;;12.43;100.00
5691;BME280;2870;42.680;23.364;2023-05-19T01:11:55;95323.34;;;12.56;100.00
5691;BME280;2870;42.680;23.364;2023-05-19T01:14:22;95321.66;;;12.53;100.00
5691;BME280;2870;42.680;23.364;2023-05-19T01:16:53;95332.56;;;12.41;100.00
5691;BME280;2870;42.680;23.364;2023-05-19T01:19:35;95320.97;;;12.29;100.00
5691;BME280;2870;42.680;23.364;2023-05-19T01:22:26;95315.22;;;12.12;100.00
5691;BME280;2870;42.680;23.364;2023-05-19T01:25:07;95321.25;;;11.93;100.00
5691;BME280;2870;42.680;23.364;2023-05-19T01:28:09;95313.75;;;11.96;100.00
5691;BME280;2870;42.680;23.364;2023-05-19T01:30:43;95324.59;;;12.14;100.00
5691;BME280;2870;42.680;23.364;2023-05-19T01:33:12;95320.28;;;12.06;100.00
5691;BME280;2870;42.680;23.364;2023-05-19T01:35:40;95329.25;;;12.19;100.00
5691;BME280;2870;42.680;23.364;2023-05-19T01:38:09;95324.59;;;12.14;100.00
5691;BME280;2870;42.680;23.364;2023-05-19T01:40:37;95327.41;;;11.99;100.00
5691;BME280;2870;42.680;23.364;2023-05-19T01:43:07;95326.88;;;11.93;100.00
5691;BME280;2870;42.680;23.364;2023-05-19T01:45:35;95322.53;;;12.07;100.00
5691;BME280;2870;42.680;23.364;2023-05-19T01:48:05;95314.50;;;11.81;100.00
5691;BME280;2870;42.680;23.364;2023-05-19T01:50:32;95328.53;;;12.04;100.00
5691;BME280;2870;42.680;23.364;2023-05-19T01:52:59;95325.56;;;11.94;100.00
5691;BME280;2870;42.680;23.364;2023-05-19T01:55:26;95325.94;;;11.98;100.00
5691;BME280;2870;42.680;23.364;2023-05-19T01:58:08;95330.81;;;11.90;100.00
5691;BME280;2870;42.680;23.364;2023-05-19T02:00:45;95327.25;;;11.89;100.00
5691;BME280;2870;42.680;23.364;2023-05-19T02:03:26;95329.13;;;11.94;100.00
5691;BME280;2870;42.680;23.364;2023-05-19T02:06:02;95328.56;;;11.88;100.00
5691;BME280;2870;42.680;23.364;2023-05-19T02:08:41;95332.66;;;11.80;100.00
5691;BME280;2870;42.680;23.364;2023-05-19T02:11:13;95332.88;;;11.97;100.00
5691;BME280;2870;42.680;23.364;2023-05-19T02:13:42;95328.00;;;11.90;100.00
5691;BME280;2870;42.680;23.364;2023-05-19T02:16:11;95335.28;;;11.78;100.00
5691;BME280;2870;42.680;23.364;2023-05-19T02:18:40;95325.75;;;11.81;100.00
5691;BME280;2870;42.680;23.364;2023-05-19T02:21:09;95334.94;;;11.89;100.00
5691;BME280;2870;42.680;23.364;2023-05-19T02:23:38;95332.28;;;11.76;100.00
5691;BME280;2870;42.680;23.364;2023-05-19T02:26:05;95321.81;;;11.76;100.00
5691;BME280;2870;42.680;23.364;2023-05-19T02:28:33;95304.56;;;11.49;100.00
5691;BME280;2870;42.680;23.364;2023-05-19T02:31:00;95334.34;;;11.67;100.00
5691;BME280;2870;42.680;23.364;2023-05-19T02:33:27;95332.47;;;11.78;100.00
5691;BME280;2870;42.680;23.364;2023-05-19T02:35:56;95337.56;;;11.64;100.00
5691;BME280;2870;42.680;23.364;2023-05-19T02:38:22;95338.47;;;11.51;100.00
5691;BME280;2870;42.680;23.364;2023-05-19T02:40:50;95340.53;;;11.58;100.00
5691;BME280;2870;42.680;23.364;2023-05-19T02:43:17;95346.69;;;11.34;100.00
5691;BME280;2870;42.680;23.364;2023-05-19T02:45:44;95334.16;;;11.35;100.00
5691;BME280;2870;42.680;23.364;2023-05-19T02:48:11;95333.41;;;11.42;100.00
5691;BME280;2870;42.680;23.364;2023-05-19T02:50:38;95336.44;;;11.52;100.00
5691;BME280;2870;42.680;23.364;2023-05-19T02:53:06;95339.41;;;11.54;100.00
5691;BME280;2870;42.680;23.364;2023-05-19T02:55:33;95336.22;;;11.42;100.00
5691;BME280;2870;42.680;23.364;2023-05-19T02:58:00;95317.69;;;11.31;100.00
5691;BME280;2870;42.680;23.364;2023-05-19T03:00:27;95339.22;;;11.44;100.00
5691;BME280;2870;42.680;23.364;2023-05-19T03:02:54;95344.84;;;11.59;100.00
5691;BME280;2870;42.680;23.364;2023-05-19T03:05:21;95344.28;;;11.53;100.00
5691;BME280;2870;42.680;23.364;2023-05-19T03:07:47;95349.16;;;11.60;100.00
5691;BME280;2870;42.680;23.364;2023-05-19T03:10:16;95348.41;;;11.52;100.00
5691;BME280;2870;42.680;23.364;2023-05-19T03:12:42;95348.41;;;11.60;100.00
5691;BME280;2870;42.680;23.364;2023-05-19T03:15:10;95353.63;;;11.33;100.00
5691;BME280;2870;42.680;23.364;2023-05-19T03:17:39;95314.09;;;11.15;100.00
5691;BME280;2870;42.680;23.364;2023-05-19T03:20:07;95352.91;;;11.71;100.00
5691;BME280;2870;42.680;23.364;2023-05-19T03:22:35;95361.69;;;11.67;100.00
5691;BME280;2870;42.680;23.364;2023-05-19T03:25:01;95354.97;;;11.78;100.00
5691;BME280;2870;42.680;23.364;2023-05-19T03:27:30;95351.41;;;11.70;100.00
5691;BME280;2870;42.680;23.364;2023-05-19T03:29:56;95357.38;;;11.51;100.00
5691;BME280;2870;42.680;23.364;2023-05-19T03:32:23;95358.91;;;11.59;100.00
5691;BME280;2870;42.680;23.364;2023-05-19T03:34:50;95350.28;;;11.57;100.00
5691;BME280;2870;42.680;23.364;2023-05-19T03:37:17;95345.41;;;11.50;100.00
5691;BME280;2870;42.680;23.364;2023-05-19T03:39:44;95352.69;;;11.46;100.00
5691;BME280;2870;42.680;23.364;2023-05-19T03:42:10;95354.03;;;11.52;100.00
5691;BME280;2870;42.680;23.364;2023-05-19T03:44:39;95356.84;;;11.52;100.00
5691;BME280;2870;42.680;23.364;2023-05-19T03:47:06;95356.84;;;11.52;100.00
5691;BME280;2870;42.680;23.364;2023-05-19T03:49:33;95359.25;;;11.56;100.00
5691;BME280;2870;42.680;23.364;2023-05-19T03:51:59;95360.19;;;11.66;100.00
5691;BME280;2870;42.680;23.364;2023-05-19T03:54:27;95365.25;;;11.60;100.00
5691;BME280;2870;42.680;23.364;2023-05-19T03:56:54;95366.38;;;11.57;100.00
5691;BME280;2870;42.680;23.364;2023-05-19T03:59:21;95364.34;;;11.88;100.00
5691;BME280;2870;42.680;23.364;2023-05-19T04:01:50;95367.53;;;11.92;100.00
5691;BME280;2870;42.680;23.364;2023-05-19T04:04:17;95372.97;;;11.98;100.00
5691;BME280;2870;42.680;23.364;2023-05-19T04:06:43;95374.25;;;11.97;100.00
5691;BME280;2870;42.680;23.364;2023-05-19T04:09:11;95369.38;;;12.28;100.00
5691;BME280;2870;42.680;23.364;2023-05-19T04:11:38;95365.63;;;12.17;100.00
5691;BME280;2870;42.680;23.364;2023-05-19T04:14:05;95374.25;;;12.19;100.00
5691;BME280;2870;42.680;23.364;2023-05-19T04:16:33;95365.81;;;12.19;100.00
5691;BME280;2870;42.680;23.364;2023-05-19T04:19:01;95373.81;;;12.54;100.00
5691;BME280;2870;42.680;23.364;2023-05-19T04:21:28;95376.06;;;12.55;100.00
5691;BME280;2870;42.680;23.364;2023-05-19T04:23:55;95383.97;;;12.34;100.00
5691;BME280;2870;42.680;23.364;2023-05-19T04:26:23;95386.03;;;12.41;100.00
5691;BME280;2870;42.680;23.364;2023-05-19T04:28:51;95379.06;;;12.50;100.00
5691;BME280;2870;42.680;23.364;2023-05-19T04:31:18;95384.78;;;12.82;100.00
5691;BME280;2870;42.680;23.364;2023-05-19T04:33:46;95389.34;;;12.62;100.00
5691;BME280;2870;42.680;23.364;2023-05-19T04:36:15;95394.59;;;12.58;100.00
5691;BME280;2870;42.680;23.364;2023-05-19T04:38:45;95388.81;;;12.56;100.00
5691;BME280;2870;42.680;23.364;2023-05-19T04:41:12;95385.44;;;12.50;100.00
5691;BME280;2870;42.680;23.364;2023-05-19T04:43:41;95394.81;;;12.53;100.00
5691;BME280;2870;42.680;23.364;2023-05-19T04:46:09;95388.81;;;12.56;100.00
5691;BME280;2870;42.680;23.364;2023-05-19T04:48:37;95387.03;;;12.84;100.00
5691;BME280;2870;42.680;23.364;2023-05-19T04:51:04;95390.28;;;13.13;100.00
5691;BME280;2870;42.680;23.364;2023-05-19T04:53:33;95389.16;;;13.08;100.00
5691;BME280;2870;42.680;23.364;2023-05-19T04:56:00;95395.69;;;13.18;100.00
5691;BME280;2870;42.680;23.364;2023-05-19T04:58:27;95389.69;;;12.74;100.00
5691;BME280;2870;42.680;23.364;2023-05-19T05:00:54;95392.53;;;12.66;100.00
5691;BME280;2870;42.680;23.364;2023-05-19T05:03:22;95394.09;;;12.92;100.00
5691;BME280;2870;42.680;23.364;2023-05-19T05:05:49;95395.84;;;12.88;100.00
5691;BME280;2870;42.680;23.364;2023-05-19T05:08:16;95395.38;;;13.07;100.00
5691;BME280;2870;42.680;23.364;2023-05-19T05:10:49;95397.75;;;13.58;100.00
5691;BME280;2870;42.680;23.364;2023-05-19T05:13:17;95390.03;;;13.84;100.00
5691;BME280;2870;42.680;23.364;2023-05-19T05:15:45;95394.88;;;13.91;100.00
5691;BME280;2870;42.680;23.364;2023-05-19T05:18:12;95400.09;;;13.69;99.24
5691;BME280;2870;42.680;23.364;2023-05-19T05:20:40;95396.78;;;13.63;100.00
5691;BME280;2870;42.680;23.364;2023-05-19T05:23:08;95393.94;;;13.63;100.00
5691;BME280;2870;42.680;23.364;2023-05-19T05:25:39;95391.91;;;14.06;99.07
5691;BME280;2870;42.680;23.364;2023-05-19T05:28:08;95391.63;;;13.94;99.01
5691;BME280;2870;42.680;23.364;2023-05-19T05:30:35;95385.66;;;13.65;98.93
5691;BME280;2870;42.680;23.364;2023-05-19T05:33:03;95386.09;;;13.54;99.64
5691;BME280;2870;42.680;23.364;2023-05-19T05:35:30;95397.28;;;13.69;99.98
5691;BME280;2870;42.680;23.364;2023-05-19T05:37:57;95408.75;;;13.96;99.07
5691;BME280;2870;42.680;23.364;2023-05-19T05:40:24;95410.66;;;14.36;98.21
5691;BME280;2870;42.680;23.364;2023-05-19T05:42:51;95403.69;;;14.37;97.95
5691;BME280;2870;42.680;23.364;2023-05-19T05:45:21;95397.78;;;14.00;97.58
5691;BME280;2870;42.680;23.364;2023-05-19T05:47:48;95400.88;;;14.12;97.77
5691;BME280;2870;42.680;23.364;2023-05-19T05:50:16;95396.63;;;14.46;96.23
5691;BME280;2870;42.680;23.364;2023-05-19T05:52:45;95402.28;;;14.46;96.42
5691;BME280;2870;42.680;23.364;2023-05-19T05:55:14;95411.53;;;14.98;95.62
5691;BME280;2870;42.680;23.364;2023-05-19T05:57:41;95420.56;;;15.14;96.03
5691;BME280;2870;42.680;23.364;2023-05-19T06:00:09;95426.06;;;15.12;94.73
5691;BME280;2870;42.680;23.364;2023-05-19T06:02:41;95425.22;;;15.19;94.55
5691;BME280;2870;42.680;23.364;2023-05-19T06:05:09;95431.19;;;15.23;94.58
5691;BME280;2870;42.680;23.364;2023-05-19T06:07:37;95432.22;;;15.01;93.19
5691;BME280;2870;42.680;23.364;2023-05-19T06:10:04;95434.47;;;14.85;92.98
5691;BME280;2870;42.680;23.364;2023-05-19T06:12:32;95427.06;;;15.07;92.65
5691;BME280;2870;42.680;23.364;2023-05-19T06:14:59;95434.38;;;15.10;91.49
5691;BME280;2870;42.680;23.364;2023-05-19T06:17:25;95427.53;;;15.13;92.06
5691;BME280;2870;42.680;23.364;2023-05-19T06:19:53;95436.31;;;15.34;88.14
5691;BME280;2870;42.680;23.364;2023-05-19T06:22:20;95438.06;;;15.30;87.47
5691;BME280;2870;42.680;23.364;2023-05-19T06:24:47;95438.34;;;15.24;88.47
5691;BME280;2870;42.680;23.364;2023-05-19T06:27:14;95437.00;;;15.25;86.73
5691;BME280;2870;42.680;23.364;2023-05-19T06:29:40;95430.44;;;15.23;86.44
5691;BME280;2870;42.680;23.364;2023-05-19T06:32:07;95434.03;;;15.68;86.17
5691;BME280;2870;42.680;23.364;2023-05-19T06:34:34;95432.09;;;15.70;84.49
5691;BME280;2870;42.680;23.364;2023-05-19T06:37:04;95438.72;;;16.19;86.85
5691;BME280;2870;42.680;23.364;2023-05-19T06:39:30;95442.72;;;15.79;83.73
5691;BME280;2870;42.680;23.364;2023-05-19T06:41:57;95437.88;;;16.36;82.96
5691;BME280;2870;42.680;23.364;2023-05-19T06:44:24;95428.03;;;16.37;83.39
5691;BME280;2870;42.680;23.364;2023-05-19T06:46:51;95432.13;;;16.63;82.18
5691;BME280;2870;42.680;23.364;2023-05-19T06:49:17;95437.13;;;16.35;80.52
5691;BME280;2870;42.680;23.364;2023-05-19T06:51:44;95405.22;;;16.25;82.82
5691;BME280;2870;42.680;23.364;2023-05-19T06:54:13;95447.31;;;16.58;82.03
5691;BME280;2870;42.680;23.364;2023-05-19T06:56:40;95442.69;;;16.53;80.50
5691;BME280;2870;42.680;23.364;2023-05-19T06:59:07;95446.44;;;16.65;81.26
5691;BME280;2870;42.680;23.364;2023-05-19T07:01:34;95439.94;;;16.82;80.40
5691;BME280;2870;42.680;23.364;2023-05-19T07:04:00;95451.59;;;17.15;80.45
5691;BME280;2870;42.680;23.364;2023-05-19T07:06:27;95449.50;;;17.15;78.00
5691;BME280;2870;42.680;23.364;2023-05-19T07:08:54;95455.00;;;17.42;78.59
5691;BME280;2870;42.680;23.364;2023-05-19T07:11:22;95454.50;;;17.75;75.88
5691;BME280;2870;42.680;23.364;2023-05-19T07:13:49;95450.34;;;17.76;75.98
5691;BME280;2870;42.680;23.364;2023-05-19T07:16:15;95459.34;;;18.04;75.36
5691;BME280;2870;42.680;23.364;2023-05-19T07:18:42;95460.13;;;18.35;74.49
5691;BME280;2870;42.680;23.364;2023-05-19T07:21:09;95448.31;;;17.98;73.17
5691;BME280;2870;42.680;23.364;2023-05-19T07:23:36;95457.94;;;18.24;72.17
5691;BME280;2870;42.680;23.364;2023-05-19T07:26:03;95446.53;;;18.02;75.69
5691;BME280;2870;42.680;23.364;2023-05-19T07:28:31;95462.09;;;17.92;71.32
5691;BME280;2870;42.680;23.364;2023-05-19T07:30:58;95456.44;;;18.54;75.41
5691;BME280;2870;42.680;23.364;2023-05-19T07:33:25;95467.16;;;18.96;72.69
5691;BME280;2870;42.680;23.364;2023-05-19T07:35:52;95453.22;;;18.79;70.08
5691;BME280;2870;42.680;23.364;2023-05-19T07:38:19;95475.47;;;18.51;72.44
5691;BME280;2870;42.680;23.364;2023-05-19T07:40:46;95465.59;;;18.52;70.06
5691;BME280;2870;42.680;23.364;2023-05-19T07:43:12;95471.00;;;18.79;70.72
5691;BME280;2870;42.680;23.364;2023-05-19T07:45:41;95458.59;;;18.13;68.27
5691;BME280;2870;42.680;23.364;2023-05-19T07:48:08;95464.09;;;18.51;71.91
5691;BME280;2870;42.680;23.364;2023-05-19T07:50:35;95463.63;;;18.86;67.75
5691;BME280;2870;42.680;23.364;2023-05-19T07:53:02;95463.94;;;19.78;67.08
5691;BME280;2870;42.680;23.364;2023-05-19T07:55:28;95472.06;;;20.17;63.45
5691;BME280;2870;42.680;23.364;2023-05-19T07:57:55;95457.94;;;20.19;63.41
5691;BME280;2870;42.680;23.364;2023-05-19T08:00:22;95459.19;;;20.16;62.66
5691;BME280;2870;42.680;23.364;2023-05-19T08:02:51;95468.41;;;20.73;64.71
5691;BME280;2870;42.680;23.364;2023-05-19T08:05:18;95468.53;;;21.61;58.75
5691;BME280;2870;42.680;23.364;2023-05-19T08:07:45;95469.75;;;21.69;59.54
5691;BME280;2870;42.680;23.364;2023-05-19T08:10:11;95464.41;;;21.50;61.02
5691;BME280;2870;42.680;23.364;2023-05-19T08:12:38;95468.78;;;21.39;59.71
5691;BME280;2870;42.680;23.364;2023-05-19T08:15:06;95460.66;;;22.24;58.57
5691;BME280;2870;42.680;23.364;2023-05-19T08:17:35;95458.31;;;21.44;57.45
5691;BME280;2870;42.680;23.364;2023-05-19T08:20:05;95461.63;;;21.78;58.54
5691;BME280;2870;42.680;23.364;2023-05-19T08:22:32;95464.22;;;22.78;61.91
5691;BME280;2870;42.680;23.364;2023-05-19T08:24:59;95468.78;;;22.96;54.31
5691;BME280;2870;42.680;23.364;2023-05-19T08:27:26;95461.44;;;22.52;57.75
5691;BME280;2870;42.680;23.364;2023-05-19T08:29:53;95463.91;;;22.58;55.72
5691;BME280;2870;42.680;23.364;2023-05-19T08:32:20;95460.50;;;23.16;54.89
5691;BME280;2870;42.680;23.364;2023-05-19T08:34:47;95460.84;;;23.66;52.36
5691;BME280;2870;42.680;23.364;2023-05-19T08:37:15;95465.38;;;24.16;50.83
5691;BME280;2870;42.680;23.364;2023-05-19T08:39:41;95455.91;;;23.98;52.56
5691;BME280;2870;42.680;23.364;2023-05-19T08:42:08;95460.75;;;24.09;50.47
5691;BME280;2870;42.680;23.364;2023-05-19T08:44:36;95456.03;;;23.27;54.51
5691;BME280;2870;42.680;23.364;2023-05-19T08:47:04;95455.91;;;23.39;53.82
5691;BME280;2870;42.680;23.364;2023-05-19T08:49:42;95452.34;;;23.68;51.27
5691;BME280;2870;42.680;23.364;2023-05-19T08:52:18;95446.41;;;23.07;61.64
5691;BME280;2870;42.680;23.364;2023-05-19T08:54:52;95449.47;;;23.54;52.76
5691;BME280;2870;42.680;23.364;2023-05-19T08:57:19;95469.00;;;24.17;49.08
5691;BME280;2870;42.680;23.364;2023-05-19T08:59:46;95460.81;;;23.22;51.11
5691;BME280;2870;42.680;23.364;2023-05-19T09:02:15;95447.69;;;23.61;54.61
5691;BME280;2870;42.680;23.364;2023-05-19T09:04:42;95447.81;;;24.24;53.10
5691;BME280;2870;42.680;23.364;2023-05-19T09:07:11;95451.19;;;24.50;51.50
5691;BME280;2870;42.680;23.364;2023-05-19T09:09:40;95455.91;;;23.39;54.76
5691;BME280;2870;42.680;23.364;2023-05-19T09:12:08;95448.94;;;23.58;50.39
5691;BME280;2870;42.680;23.364;2023-05-19T09:14:36;95442.41;;;23.85;50.85
5691;BME280;2870;42.680;23.364;2023-05-19T09:17:03;95437.38;;;23.69;52.30
5691;BME280;2870;42.680;23.364;2023-05-19T09:19:30;95445.00;;;24.40;51.66
5691;BME280;2870;42.680;23.364;2023-05-19T09:21:57;95440.41;;;23.44;55.12
5691;BME280;2870;42.680;23.364;2023-05-19T09:24:25;95417.22;;;24.28;52.28
5691;BME280;2870;42.680;23.364;2023-05-19T09:26:55;95432.69;;;24.53;55.90
5691;BME280;2870;42.680;23.364;2023-05-19T09:29:22;95436.56;;;24.75;51.84
5691;BME280;2870;42.680;23.364;2023-05-19T09:31:50;95437.38;;;24.30;54.81
5691;BME280;2870;42.680;23.364;2023-05-19T09:34:18;95434.09;;;23.91;49.69
5691;BME280;2870;42.680;23.364;2023-05-19T09:36:45;95433.03;;;24.14;51.33
5691;BME280;2870;42.680;23.364;2023-05-19T09:39:14;95435.09;;;24.43;53.42
5691;BME280;2870;42.680;23.364;2023-05-19T09:41:41;95430.84;;;24.59;49.24
5691;BME280;2870;42.680;23.364;2023-05-19T09:44:13;95427.09;;;24.10;52.28
5691;BME280;2870;42.680;23.364;2023-05-19T09:46:47;95422.25;;;23.83;53.94
5691;BME280;2870;42.680;23.364;2023-05-19T09:49:18;95427.56;;;24.67;53.61
5691;BME280;2870;42.680;23.364;2023-05-19T09:51:45;95416.03;;;24.99;48.47
5691;BME280;2870;42.680;23.364;2023-05-19T09:54:14;95423.28;;;25.69;45.31
5691;BME280;2870;42.680;23.364;2023-05-19T09:56:41;95419.16;;;24.71;48.91
5691;BME280;2870;42.680;23.364;2023-05-19T09:59:08;95415.25;;;24.96;47.89
5691;BME280;2870;42.680;23.364;2023-05-19T10:01:37;95415.66;;;24.57;48.54
5691;BME280;2870;42.680;23.364;2023-05-19T10:04:05;95406.25;;;24.88;49.76
5691;BME280;2870;42.680;23.364;2023-05-19T10:06:33;95415.44;;;25.87;45.47
5691;BME280;2870;42.680;23.364;2023-05-19T10:09:00;95411.97;;;25.37;43.31
5691;BME280;2870;42.680;23.364;2023-05-19T10:11:29;95414.75;;;25.35;48.52
5691;BME280;2870;42.680;23.364;2023-05-19T10:13:56;95410.94;;;26.20;46.78
5691;BME280;2870;42.680;23.364;2023-05-19T10:16:25;95413.97;;;27.02;40.81
5691;BME280;2870;42.680;23.364;2023-05-19T10:18:56;95409.25;;;26.71;39.77
5691;BME280;2870;42.680;23.364;2023-05-19T10:21:25;95410.88;;;26.95;40.39
5691;BME280;2870;42.680;23.364;2023-05-19T10:23:53;95401.03;;;27.03;40.02
5691;BME280;2870;42.680;23.364;2023-05-19T10:26:20;95395.94;;;27.01;41.30
5691;BME280;2870;42.680;23.364;2023-05-19T10:28:48;95405.91;;;26.01;43.56
5691;BME280;2870;42.680;23.364;2023-05-19T10:31:17;95397.59;;;26.47;40.29
5691;BME280;2870;42.680;23.364;2023-05-19T10:34:02;95387.97;;;27.41;38.15
5691;BME280;2870;42.680;23.364;2023-05-19T10:36:43;95388.56;;;27.16;39.00
5691;BME280;2870;42.680;23.364;2023-05-19T10:39:16;95379.06;;;27.33;37.13
5691;BME280;2870;42.680;23.364;2023-05-19T10:41:50;95379.31;;;26.20;43.12
5691;BME280;2870;42.680;23.364;2023-05-19T10:44:27;95377.66;;;26.53;38.04
5691;BME280;2870;42.680;23.364;2023-05-19T10:46:58;95377.88;;;26.39;38.82
5691;BME280;2870;42.680;23.364;2023-05-19T10:49:33;95382.06;;;26.16;37.97
5691;BME280;2870;42.680;23.364;2023-05-19T10:52:00;95364.69;;;25.94;39.66
5691;BME280;2870;42.680;23.364;2023-05-19T10:54:40;95369.88;;;25.80;41.70
5691;BME280;2870;42.680;23.364;2023-05-19T10:57:07;95372.97;;;25.68;40.42
5691;BME280;2870;42.680;23.364;2023-05-19T10:59:36;95372.38;;;24.19;41.72
5691;BME280;2870;42.680;23.364;2023-05-19T11:02:04;95362.84;;;23.53;43.79
5691;BME280;2870;42.680;23.364;2023-05-19T11:04:46;95357.38;;;23.44;44.68
5691;BME280;2870;42.680;23.364;2023-05-19T11:07:16;95359.81;;;23.49;45.49
5691;BME280;2870;42.680;23.364;2023-05-19T11:09:48;95351.84;;;23.48;47.42
5691;BME280;2870;42.680;23.364;2023-05-19T11:12:19;95356.22;;;23.94;44.64
5691;BME280;2870;42.680;23.364;2023-05-19T11:14:46;95361.53;;;23.86;45.20
5691;BME280;2870;42.680;23.364;2023-05-19T11:17:13;95359.66;;;23.32;47.44
5691;BME280;2870;42.680;23.364;2023-05-19T11:19:51;95334.84;;;23.66;44.27
5691;BME280;2870;42.680;23.364;2023-05-19T11:22:22;95359.03;;;23.33;43.77
5691;BME280;2870;42.680;23.364;2023-05-19T11:24:50;95349.88;;;23.37;44.72
5691;BME280;2870;42.680;23.364;2023-05-19T11:27:27;95354.69;;;23.48;44.97
5691;BME280;2870;42.680;23.364;2023-05-19T11:29:56;95348.25;;;22.61;45.31
5691;BME280;2870;42.680;23.364;2023-05-19T11:32:26;95348.28;;;22.19;45.24
5691;BME280;2870;42.680;23.364;2023-05-19T11:34:55;95351.81;;;21.92;46.68
5691;BME280;2870;42.680;23.364;2023-05-19T11:37:23;95344.13;;;22.22;53.06
5691;BME280;2870;42.680;23.364;2023-05-19T11:39:50;95365.72;;;21.73;62.65
5691;BME280;2870;42.680;23.364;2023-05-19T11:42:17;95366.16;;;20.67;71.60
5691;BME280;2870;42.680;23.364;2023-05-19T11:44:45;95357.16;;;18.77;85.81
5691;BME280;2870;42.680;23.364;2023-05-19T11:47:12;95370.00;;;17.73;87.92
5691;BME280;2870;42.680;23.364;2023-05-19T11:49:42;95358.94;;;17.17;83.58
5691;BME280;2870;42.680;23.364;2023-05-19T11:52:11;95354.91;;;17.11;83.33
5691;BME280;2870;42.680;23.364;2023-05-19T11:54:38;95365.81;;;16.95;91.54
5691;BME280;2870;42.680;23.364;2023-05-19T11:57:07;95344.66;;;16.86;97.33
5691;BME280;2870;42.680;23.364;2023-05-19T11:59:36;95382.50;;;17.10;100.00
5691;BME280;2870;42.680;23.364;2023-05-19T12:02:15;95399.97;;;17.07;100.00
5691;BME280;2870;42.680;23.364;2023-05-19T12:04:42;95398.63;;;16.79;95.55
5691;BME280;2870;42.680;23.364;2023-05-19T12:07:11;95401.38;;;16.50;91.52
5691;BME280;2870;42.680;23.364;2023-05-19T12:09:39;95398.69;;;16.32;87.59
5691;BME280;2870;42.680;23.364;2023-05-19T12:12:06;95401.09;;;16.46;86.38
5691;BME280;2870;42.680;23.364;2023-05-19T12:14:34;95409.22;;;16.12;82.33
5691;BME280;2870;42.680;23.364;2023-05-19T12:17:09;95401.78;;;16.27;84.49
5691;BME280;2870;42.680;23.364;2023-05-19T12:19:37;95417.41;;;16.18;84.05
5691;BME280;2870;42.680;23.364;2023-05-19T12:22:05;95400.16;;;16.24;85.31
5691;BME280;2870;42.680;23.364;2023-05-19T12:24:34;95384.69;;;16.34;84.13
5691;BME280;2870;42.680;23.364;2023-05-19T12:27:09;95414.84;;;16.68;80.88
5691;BME280;2870;42.680;23.364;2023-05-19T12:29:37;95411.44;;;16.99;83.09
5691;BME280;2870;42.680;23.364;2023-05-19T12:32:04;95411.28;;;17.26;87.60
5691;BME280;2870;42.680;23.364;2023-05-19T12:34:34;95406.09;;;17.03;80.93
5691;BME280;2870;42.680;23.364;2023-05-19T12:37:01;95406.66;;;17.11;79.66
5691;BME280;2870;42.680;23.364;2023-05-19T12:39:28;95407.38;;;17.51;78.33
5691;BME280;2870;42.680;23.364;2023-05-19T12:42:01;95403.66;;;17.29;79.09
5691;BME280;2870;42.680;23.364;2023-05-19T12:44:28;95393.66;;;17.37;78.13
5691;BME280;2870;42.680;23.364;2023-05-19T12:46:56;95387.81;;;17.45;75.90
5691;BME280;2870;42.680;23.364;2023-05-19T12:49:23;95383.13;;;17.69;77.82
5691;BME280;2870;42.680;23.364;2023-05-19T12:51:51;95386.38;;;17.94;79.92
5691;BME280;2870;42.680;23.364;2023-05-19T12:54:18;95384.75;;;18.22;78.67
5691;BME280;2870;42.680;23.364;2023-05-19T12:56:48;95372.47;;;18.20;75.63
5691;BME280;2870;42.680;23.364;2023-05-19T12:59:21;95373.91;;;18.31;71.86
5691;BME280;2870;42.680;23.364;2023-05-19T13:01:54;95369.13;;;18.33;67.80
5691;BME280;2870;42.680;23.364;2023-05-19T13:04:21;95357.19;;;18.56;70.43
5691;BME280;2870;42.680;23.364;2023-05-19T13:06:48;95352.25;;;18.57;67.25
5691;BME280;2870;42.680;23.364;2023-05-19T13:09:15;95355.28;;;18.70;68.97
5691;BME280;2870;42.680;23.364;2023-05-19T13:11:44;95352.75;;;18.65;66.22
5691;BME280;2870;42.680;23.364;2023-05-19T13:14:15;95349.53;;;18.59;64.79